Time;durP1;ratioP1;P1;durP2;ratioP2;P2;SDS_P1;SDS_P2;PMS_P1;PMS_P2;Temp;Humidity;BMP_temperature;BMP_pressure;BME280_temperature;BME280_humidity;BME280_pressure;Samples;Min_cycle;Max_cycle;Signal;HPM_P1;HPM_P2
2022/07/17 00:00:09;;;;;;;4.90;1.52;;;;;;;12.84;54.01;101933.59;7395801;19;20022;-67
2022/07/17 00:02:38;;;;;;;5.50;1.75;;;;;;;12.78;54.29;101934.50;7395898;19;20018;-66
2022/07/17 00:05:10;;;;;;;3.20;1.33;;;;;;;12.71;54.64;101933.72;7397817;19;20035;-66
2022/07/17 00:07:38;;;;;;;6.13;2.17;;;;;;;12.65;54.43;101936.41;7395628;19;20018;-66
2022/07/17 00:10:08;;;;;;;3.35;1.42;;;;;;;12.62;54.62;101936.44;7394967;19;20074;-65
2022/07/17 00:12:37;;;;;;;4.20;1.40;;;;;;;12.59;54.78;101939.13;7397410;19;20031;-66
2022/07/17 00:15:13;;;;;;;5.07;1.67;;;;;;;12.55;55.15;101945.31;7394441;19;20014;-65
2022/07/17 00:17:42;;;;;;;4.55;1.33;;;;;;;12.48;55.25;101957.66;7395462;19;20019;-65
2022/07/17 00:20:14;;;;;;;5.18;1.50;;;;;;;12.38;55.57;101951.63;7396794;19;20485;-65
2022/07/17 00:22:43;;;;;;;4.47;1.48;;;;;;;12.32;55.62;101945.53;7397085;19;20031;-66
2022/07/17 00:25:12;;;;;;;7.32;1.60;;;;;;;12.25;55.80;101955.25;7395569;19;20022;-66
2022/07/17 00:27:41;;;;;;;7.75;1.70;;;;;;;12.21;55.99;101956.19;7396137;19;20031;-66
2022/07/17 00:30:12;;;;;;;4.45;1.40;;;;;;;12.19;56.00;101964.06;7396779;19;20481;-66
2022/07/17 00:32:41;;;;;;;4.60;1.33;;;;;;;12.14;56.09;101951.84;7397068;19;20086;-65
2022/07/17 00:35:13;;;;;;;4.20;1.60;;;;;;;12.12;56.33;101956.25;7394447;19;20086;-66
2022/07/17 00:37:42;;;;;;;5.00;1.58;;;;;;;12.08;56.43;101958.06;7395209;19;20022;-66
2022/07/17 00:40:13;;;;;;;5.45;1.60;;;;;;;12.04;56.46;101953.69;7396793;19;20082;-66
2022/07/17 00:42:43;;;;;;;3.47;1.27;;;;;;;12.00;56.68;101954.59;7394715;19;20010;-66
2022/07/17 00:45:13;;;;;;;6.10;1.65;;;;;;;11.95;56.81;101951.97;7395533;19;20083;-65
2022/07/17 00:47:52;;;;;;;4.75;1.35;;;;;;;11.90;57.46;101956.38;7394038;19;20498;-66
2022/07/17 00:50:24;;;;;;;5.72;1.30;;;;;;;11.86;57.27;101954.69;7396651;19;20018;-66
2022/07/17 00:52:54;;;;;;;4.60;1.50;;;;;;;11.80;57.47;101955.56;7394819;19;20026;-66
2022/07/17 00:55:22;;;;;;;5.63;1.65;;;;;;;11.78;57.53;101959.09;7395885;19;20498;-66
2022/07/17 00:57:54;;;;;;;3.90;1.65;;;;;;;11.73;57.64;101946.88;7395251;19;20034;-65
2022/07/17 01:00:22;;;;;;;5.68;2.08;;;;;;;11.71;57.77;101950.41;7396356;19;20037;-65
2022/07/17 01:02:53;;;;;;;5.88;2.10;;;;;;;11.69;57.83;101954.78;7395667;19;20498;-65
2022/07/17 01:05:25;;;;;;;7.18;2.00;;;;;;;11.66;58.23;101952.19;7395639;19;20485;-65
2022/07/17 01:07:54;;;;;;;4.25;1.48;;;;;;;11.63;58.23;101952.22;7394606;19;20359;-64
2022/07/17 01:10:23;;;;;;;4.55;1.50;;;;;;;11.58;58.34;101950.47;7393306;19;20011;-65
2022/07/17 01:12:51;;;;;;;4.32;1.45;;;;;;;11.54;58.39;101950.53;7394836;19;20027;-64
2022/07/17 01:15:20;;;;;;;3.17;1.48;;;;;;;11.50;58.77;101949.66;7394046;19;20031;-65
2022/07/17 01:17:49;;;;;;;4.40;1.30;;;;;;;11.46;58.85;101953.22;7394744;19;20426;-65
2022/07/17 01:20:18;;;;;;;6.45;1.50;;;;;;;11.41;59.00;101947.06;7395437;19;20033;-66
2022/07/17 01:22:51;;;;;;;6.68;1.48;;;;;;;11.35;59.17;101942.75;7394257;19;20014;-65
2022/07/17 01:25:24;;;;;;;13.83;2.10;;;;;;;11.31;59.11;101954.16;7394697;19;20070;-66
2022/07/17 01:27:53;;;;;;;3.10;1.02;;;;;;;11.27;59.22;101946.28;7394785;19;20031;-66
2022/07/17 01:30:28;;;;;;;7.43;1.65;;;;;;;11.24;59.67;101945.41;7395156;19;20038;-65
2022/07/17 01:32:57;;;;;;;5.00;1.67;;;;;;;11.21;59.64;101940.19;7393268;19;20101;-66
2022/07/17 01:35:26;;;;;;;4.13;1.27;;;;;;;11.19;59.70;101941.09;7394818;19;20510;-66
2022/07/17 01:37:57;;;;;;;6.63;1.75;;;;;;;11.17;59.82;101941.09;7394673;19;20026;-67
2022/07/17 01:40:25;;;;;;;5.55;1.50;;;;;;;11.14;60.01;101941.09;7394843;19;20392;-67
2022/07/17 01:42:54;;;;;;;5.55;1.55;;;;;;;11.09;59.95;101940.25;7394686;19;20074;-64
2022/07/17 01:45:22;;;;;;;6.28;1.63;;;;;;;11.09;59.99;101942.88;7393211;19;20035;-64
2022/07/17 01:47:51;;;;;;;4.50;1.38;;;;;;;11.07;60.10;101944.66;7393928;19;20018;-65
2022/07/17 01:50:19;;;;;;;4.38;1.48;;;;;;;11.07;60.32;101944.66;7393043;19;20031;-65
2022/07/17 01:52:48;;;;;;;4.97;1.48;;;;;;;11.04;60.69;101945.50;7392781;19;20018;-65
2022/07/17 01:55:19;;;;;;;5.38;1.20;;;;;;;11.02;60.95;101944.66;7392413;19;20392;-65
2022/07/17 01:57:48;;;;;;;4.05;1.60;;;;;;;10.99;60.74;101944.66;7393937;19;20090;-65
2022/07/17 02:00:20;;;;;;;4.18;1.40;;;;;;;10.96;60.87;101943.84;7392642;19;20018;-65
2022/07/17 02:02:48;;;;;;;4.78;1.27;;;;;;;10.92;60.94;101938.56;7394854;19;20029;-65
2022/07/17 02:05:17;;;;;;;3.45;1.25;;;;;;;10.90;61.24;101940.31;7392547;19;20019;-66
2022/07/17 02:07:45;;;;;;;4.88;1.20;;;;;;;10.88;61.19;101949.97;7392310;19;20015;-65
2022/07/17 02:10:16;;;;;;;3.97;1.75;;;;;;;10.85;61.20;101939.47;7393797;19;20015;-65
2022/07/17 02:12:48;;;;;;;5.97;1.70;;;;;;;10.83;61.42;101940.34;7392520;19;20015;-65
2022/07/17 02:15:23;;;;;;;4.40;1.45;;;;;;;10.80;61.67;101946.50;7391814;19;20028;-65
2022/07/17 02:17:52;;;;;;;6.65;1.20;;;;;;;10.75;61.66;101941.28;7392117;19;20098;-65
2022/07/17 02:20:20;;;;;;;4.43;1.42;;;;;;;10.73;61.72;101942.16;7393105;19;20427;-65
2022/07/17 02:22:49;;;;;;;3.38;1.40;;;;;;;10.71;61.83;101941.28;7401369;19;20025;-65
2022/07/17 02:25:18;;;;;;;3.58;1.48;;;;;;;10.68;61.88;101944.78;7398544;19;20024;-65
2022/07/17 02:27:49;;;;;;;4.15;1.80;;;;;;;10.67;62.16;101950.06;7399547;19;20391;-65
2022/07/17 02:30:19;;;;;;;3.85;1.13;;;;;;;10.63;62.30;101940.41;7401214;19;20676;-65
2022/07/17 02:32:48;;;;;;;4.95;1.42;;;;;;;10.58;62.34;101941.31;7397489;19;20018;-65
2022/07/17 02:35:17;;;;;;;3.13;1.55;;;;;;;10.55;62.42;101937.81;7397670;19;20026;-65
2022/07/17 02:37:45;;;;;;;4.40;1.40;;;;;;;10.52;62.46;101936.06;7397632;19;20423;-65
2022/07/17 02:40:15;;;;;;;6.47;2.10;;;;;;;10.49;62.64;101940.44;7400494;19;20042;-65
2022/07/17 02:42:43;;;;;;;3.40;1.42;;;;;;;10.45;63.02;101947.47;7397474;19;20018;-65
2022/07/17 02:45:15;;;;;;;7.97;1.58;;;;;;;10.41;63.33;101945.72;7398098;19;20023;-65
2022/07/17 02:47:44;;;;;;;7.45;1.85;;;;;;;10.36;63.15;101950.09;7399841;19;20026;-65
2022/07/17 02:50:12;;;;;;;6.70;2.55;;;;;;;10.32;63.39;101957.06;7399961;19;20019;-65
2022/07/17 02:52:43;;;;;;;6.63;3.10;;;;;;;10.30;63.37;101961.47;7397714;19;20010;-66
2022/07/17 02:55:12;;;;;;;4.68;1.98;;;;;;;10.25;63.69;101958.84;7398218;19;20018;-65
2022/07/17 02:57:41;;;;;;;4.30;1.52;;;;;;;10.24;63.67;101966.72;7399235;19;20018;-65
2022/07/17 03:00:15;;;;;;;4.65;1.85;;;;;;;10.21;63.96;101964.97;7399836;19;20544;-65
2022/07/17 03:02:44;;;;;;;7.10;1.63;;;;;;;10.16;64.02;101961.47;7398074;19;20022;-65
2022/07/17 03:05:14;;;;;;;3.58;1.65;;;;;;;10.15;64.09;101964.06;7399645;19;20510;-66
2022/07/17 03:07:43;;;;;;;9.40;1.60;;;;;;;10.11;64.38;101964.09;7398917;19;20031;-66
2022/07/17 03:10:12;;;;;;;2.97;1.30;;;;;;;10.08;64.69;101968.44;7399880;19;20154;-66
2022/07/17 03:12:41;;;;;;;3.58;1.55;;;;;;;10.04;64.70;101969.34;7397835;19;20600;-66
2022/07/17 03:15:10;;;;;;;4.25;1.65;;;;;;;10.01;64.90;101971.94;7396971;19;20011;-65
2022/07/17 03:17:44;;;;;;;5.70;1.70;;;;;;;9.99;64.90;101976.31;7397173;19;20078;-66
2022/07/17 03:20:13;;;;;;;4.43;1.77;;;;;;;9.97;64.94;101970.19;7396918;19;20486;-66
2022/07/17 03:22:41;;;;;;;5.90;2.13;;;;;;;9.94;64.94;101968.44;7397106;19;20023;-66
2022/07/17 03:25:11;;;;;;;10.32;3.83;;;;;;;9.93;65.15;101977.19;7399402;19;20035;-66
2022/07/17 03:27:40;;;;;;;8.55;2.45;;;;;;;9.92;65.13;101978.03;7397912;19;20090;-66
2022/07/17 03:30:10;;;;;;;4.38;1.95;;;;;;;9.90;65.42;101977.19;7399202;19;20015;-66
2022/07/17 03:32:39;;;;;;;4.03;1.50;;;;;;;9.88;65.29;101978.94;7394985;19;20039;-65
2022/07/17 03:35:11;;;;;;;4.90;1.90;;;;;;;9.87;65.40;101982.41;7398459;19;20557;-65
2022/07/17 03:37:39;;;;;;;7.07;1.77;;;;;;;9.86;65.54;101986.78;7397724;19;20477;-65
2022/07/17 03:40:10;;;;;;;6.10;1.75;;;;;;;9.85;65.69;101989.41;7396232;19;20021;-65
2022/07/17 03:42:38;;;;;;;5.47;1.63;;;;;;;9.85;65.73;101987.66;7396025;19;20557;-65
2022/07/17 03:45:08;;;;;;;5.65;2.05;;;;;;;9.83;65.94;101985.91;7396491;19;20022;-65
2022/07/17 03:47:37;;;;;;;6.25;2.03;;;;;;;9.81;66.03;101993.78;7396422;19;20022;-65
2022/07/17 03:50:06;;;;;;;3.03;2.08;;;;;;;9.80;66.18;101992.03;7396327;19;20035;-65
2022/07/17 03:52:37;;;;;;;5.70;1.85;;;;;;;9.80;66.40;102007.75;7395874;19;20086;-65
2022/07/17 03:55:06;;;;;;;4.70;1.88;;;;;;;9.78;66.54;102009.47;7396361;19;20024;-65
2022/07/17 03:57:35;;;;;;;3.90;1.30;;;;;;;9.79;66.53;102016.47;7397623;19;20022;-65
2022/07/17 04:00:04;;;;;;;4.95;1.70;;;;;;;9.79;66.49;102021.72;7396135;19;20019;-65
2022/07/17 04:02:32;;;;;;;13.63;1.75;;;;;;;9.81;66.69;102019.09;7398141;19;20377;-65
2022/07/17 04:05:01;;;;;;;4.88;1.58;;;;;;;9.80;66.68;102023.47;7398129;19;20031;-65
2022/07/17 04:07:30;;;;;;;2.92;1.30;;;;;;;9.82;66.97;102021.75;7397394;19;20026;-65
2022/07/17 04:10:02;;;;;;;9.32;2.40;;;;;;;9.83;67.16;102025.22;7397525;19;20382;-65
2022/07/17 04:12:30;;;;;;;5.30;1.63;;;;;;;9.85;67.20;102026.97;7396466;19;20505;-65
2022/07/17 04:14:59;;;;;;;3.28;1.60;;;;;;;9.87;67.17;102025.25;7395360;19;20007;-65
2022/07/17 04:17:28;;;;;;;5.28;1.80;;;;;;;9.90;67.16;102033.09;7396824;19;20026;-65
2022/07/17 04:19:57;;;;;;;4.43;1.73;;;;;;;9.93;67.73;102027.88;7394942;19;20015;-65
2022/07/17 04:22:26;;;;;;;8.82;2.30;;;;;;;9.95;67.50;102031.38;7395496;19;20018;-66
2022/07/17 04:24:54;;;;;;;5.25;1.88;;;;;;;9.98;67.38;102027.88;7395006;19;20497;-65
2022/07/17 04:27:26;;;;;;;7.70;1.63;;;;;;;10.02;67.54;102029.66;7395074;19;20096;-65
2022/07/17 04:29:54;;;;;;;7.15;1.80;;;;;;;10.07;67.47;102037.50;7394837;19;20548;-65
2022/07/17 04:32:22;;;;;;;11.00;3.20;;;;;;;10.10;67.94;102033.13;7395314;19;20018;-65
2022/07/17 04:34:51;;;;;;;11.93;4.20;;;;;;;10.15;67.69;102041.00;7394713;19;20507;-65
2022/07/17 04:37:19;;;;;;;9.38;3.05;;;;;;;10.20;67.83;102033.16;7394830;19;20022;-65
2022/07/17 04:39:48;;;;;;;6.80;2.55;;;;;;;10.24;67.72;102030.50;7396875;19;20018;-65
2022/07/17 04:42:16;;;;;;;5.65;2.03;;;;;;;10.30;67.80;102028.75;7395165;19;20074;-65
2022/07/17 04:44:47;;;;;;;8.65;2.03;;;;;;;10.34;67.74;102026.16;7396762;19;20094;-65
2022/07/17 04:47:16;;;;;;;4.88;1.67;;;;;;;10.38;67.59;102038.41;7395858;19;20422;-65
2022/07/17 04:49:44;;;;;;;12.48;2.10;;;;;;;10.44;67.57;102042.81;7396244;19;20548;-65
2022/07/17 04:52:13;;;;;;;5.63;2.22;;;;;;;10.48;67.54;102049.78;7394378;19;20031;-65
2022/07/17 04:54:41;;;;;;;10.00;2.35;;;;;;;10.55;67.47;102046.28;7396458;19;20023;-65
2022/07/17 04:57:10;;;;;;;8.10;1.90;;;;;;;10.59;68.47;102049.81;7395879;19;20022;-65
2022/07/17 04:59:39;;;;;;;6.40;1.80;;;;;;;10.64;68.10;102055.91;7394581;19;20098;-65
2022/07/17 05:02:10;;;;;;;4.57;1.63;;;;;;;10.68;68.03;102054.13;7394497;19;20022;-65
2022/07/17 05:04:38;;;;;;;9.43;1.67;;;;;;;10.73;67.81;102055.91;7395731;19;20086;-66
2022/07/17 05:07:07;;;;;;;6.95;1.45;;;;;;;10.78;68.11;102041.88;7395136;19;20015;-66
2022/07/17 05:09:35;;;;;;;3.90;1.33;;;;;;;10.82;67.81;102051.53;7393990;19;20033;-66
2022/07/17 05:12:04;;;;;;;4.28;1.35;;;;;;;10.88;67.95;102060.25;7394120;19;20086;-66
2022/07/17 05:15:01;;;;;;;8.68;1.75;;;;;;;10.95;67.92;102049.75;7394791;19;20011;-66
2022/07/17 05:17:39;;;;;;;6.50;1.50;;;;;;;11.01;68.65;102049.72;7395199;19;20037;-66
2022/07/17 05:20:09;;;;;;;4.78;1.23;;;;;;;11.07;67.67;102052.34;7396133;19;20419;-66
2022/07/17 05:22:38;;;;;;;5.88;1.55;;;;;;;11.14;67.80;102051.41;7395877;19;20387;-66
2022/07/17 05:25:08;;;;;;;8.50;2.78;;;;;;;11.22;67.91;102052.28;7395422;19;20035;-65
2022/07/17 05:27:37;;;;;;;4.57;1.48;;;;;;;11.29;67.80;102047.00;7394261;19;20022;-65
2022/07/17 05:30:06;;;;;;;6.65;1.77;;;;;;;11.37;67.64;102047.84;7395162;19;20035;-64
2022/07/17 05:32:34;;;;;;;6.38;1.40;;;;;;;11.45;67.67;102040.81;7394668;19;20022;-66
2022/07/17 05:35:06;;;;;;;8.43;1.83;;;;;;;11.53;67.91;102054.78;7395086;19;20022;-65
2022/07/17 05:37:34;;;;;;;13.73;5.57;;;;;;;11.61;67.77;102056.50;7394165;19;20014;-65
2022/07/17 05:40:03;;;;;;;8.45;2.00;;;;;;;11.69;67.82;102055.56;7395033;19;20023;-65
2022/07/17 05:42:31;;;;;;;5.80;1.65;;;;;;;11.79;67.17;102055.50;7394690;19;20018;-65
2022/07/17 05:45:00;;;;;;;7.70;2.13;;;;;;;11.90;67.26;102057.22;7394965;19;20018;-65
2022/07/17 05:47:28;;;;;;;6.88;1.77;;;;;;;12.00;67.13;102059.81;7394315;19;20025;-65
2022/07/17 05:49:57;;;;;;;8.85;1.48;;;;;;;12.10;66.97;102065.88;7394757;19;20026;-66
2022/07/17 05:52:28;;;;;;;4.43;1.55;;;;;;;12.19;66.91;102065.81;7394265;19;20031;-65
2022/07/17 05:54:56;;;;;;;13.98;6.70;;;;;;;12.31;66.54;102072.72;7395587;19;20010;-65
2022/07/17 05:57:25;;;;;;;6.32;1.50;;;;;;;12.44;66.35;102074.38;7399308;19;20078;-65
2022/07/17 05:59:53;;;;;;;6.45;1.73;;;;;;;12.54;66.18;102076.03;7401737;19;20379;-66
2022/07/17 06:02:22;;;;;;;6.28;1.60;;;;;;;12.65;65.91;102080.34;7398966;19;20014;-65
2022/07/17 06:04:50;;;;;;;6.53;1.60;;;;;;;12.76;65.56;102082.88;7398877;19;20114;-65
2022/07/17 06:07:19;;;;;;;8.60;1.50;;;;;;;12.87;65.22;102087.16;7400815;19;20022;-65
2022/07/17 06:09:50;;;;;;;8.38;1.80;;;;;;;12.96;65.23;102088.81;7401870;19;20018;-65
2022/07/17 06:12:18;;;;;;;7.25;2.00;;;;;;;13.06;64.88;102102.78;7402032;19;20066;-65
2022/07/17 06:14:47;;;;;;;7.93;1.90;;;;;;;13.12;64.62;102097.44;7398097;19;20363;-66
2022/07/17 06:17:15;;;;;;;6.35;1.63;;;;;;;13.18;64.42;102092.13;7398192;19;20513;-65
2022/07/17 06:19:44;;;;;;;11.35;2.13;;;;;;;13.24;64.37;102085.03;7401116;19;20506;-66
2022/07/17 06:22:12;;;;;;;5.85;1.95;;;;;;;13.33;64.08;102083.16;7401407;19;20022;-67
2022/07/17 06:24:41;;;;;;;10.07;1.70;;;;;;;13.40;64.24;102098.94;7398627;19;20039;-66
2022/07/17 06:27:12;;;;;;;4.70;1.20;;;;;;;13.42;64.16;102090.13;7397933;19;20014;-66
2022/07/17 06:29:40;;;;;;;7.68;1.67;;;;;;;13.46;64.20;102099.72;7399833;19;20090;-66
2022/07/17 06:32:09;;;;;;;10.55;2.08;;;;;;;13.51;64.23;102097.91;7398230;19;20054;-64
2022/07/17 06:34:38;;;;;;;9.85;1.83;;;;;;;13.56;64.05;102095.22;7397855;19;20078;-66
2022/07/17 06:37:06;;;;;;;4.43;1.38;;;;;;;13.61;63.86;102088.13;7398422;19;20035;-66
2022/07/17 06:39:35;;;;;;;6.65;1.98;;;;;;;13.68;63.69;102078.34;7400299;19;20510;-64
2022/07/17 06:42:04;;;;;;;8.23;1.80;;;;;;;13.77;63.44;102080.00;7397756;19;20015;-65
2022/07/17 06:44:35;;;;;;;8.10;1.60;;;;;;;13.84;63.23;102085.16;7398094;19;20078;-65
2022/07/17 06:47:03;;;;;;;14.75;1.90;;;;;;;13.91;63.20;102090.38;7397670;19;20481;-65
2022/07/17 06:49:32;;;;;;;11.95;1.67;;;;;;;13.97;63.02;102090.28;7397580;19;20514;-65
2022/07/17 06:52:00;;;;;;;8.15;2.28;;;;;;;14.04;62.91;102091.06;7397294;19;20070;-65
2022/07/17 06:54:29;;;;;;;6.55;1.38;;;;;;;14.07;62.73;102089.25;7397170;19;20485;-65
2022/07/17 06:56:57;;;;;;;3.40;1.60;;;;;;;14.15;62.85;102095.28;7397633;19;20039;-65
2022/07/17 06:59:26;;;;;;;8.25;2.65;;;;;;;14.25;62.60;102096.00;7399403;19;20461;-65
2022/07/17 07:01:57;;;;;;;8.10;2.17;;;;;;;14.36;61.87;102093.19;7397206;19;20477;-65
2022/07/17 07:04:26;;;;;;;8.90;1.42;;;;;;;14.47;61.79;102095.69;7397905;19;20018;-64
2022/07/17 07:06:54;;;;;;;7.30;1.70;;;;;;;14.54;61.13;102094.66;7397001;19;20027;-64
2022/07/17 07:09:23;;;;;;;5.18;1.45;;;;;;;14.62;61.00;102095.41;7399690;19;20022;-65
2022/07/17 07:11:51;;;;;;;4.80;1.33;;;;;;;14.68;60.96;102091.81;7399273;19;20018;-65
2022/07/17 07:14:20;;;;;;;9.85;1.60;;;;;;;14.71;60.45;102091.78;7396977;19;20014;-65
2022/07/17 07:16:48;;;;;;;8.55;1.77;;;;;;;14.76;60.19;102087.28;7399186;19;20014;-66
2022/07/17 07:19:19;;;;;;;4.28;1.40;;;;;;;14.84;60.26;102089.78;7399039;19;20365;-65
2022/07/17 07:21:48;;;;;;;8.32;2.00;;;;;;;14.88;59.80;102093.25;7397278;19;20018;-65
2022/07/17 07:24:16;;;;;;;4.90;1.75;;;;;;;14.89;59.83;102102.94;7399157;19;20431;-66
2022/07/17 07:26:45;;;;;;;6.32;1.50;;;;;;;14.87;59.25;102112.63;7396740;19;20380;-66
2022/07/17 07:29:13;;;;;;;4.45;1.60;;;;;;;14.89;59.51;102093.22;7398445;19;20027;-65
2022/07/17 07:31:42;;;;;;;6.97;1.38;;;;;;;14.91;59.35;102095.81;7398720;19;20032;-66
2022/07/17 07:34:10;;;;;;;5.45;1.30;;;;;;;14.94;59.42;102090.50;7396930;19;20022;-65
2022/07/17 07:36:41;;;;;;;7.38;1.55;;;;;;;14.99;58.57;102099.22;7398699;19;20035;-65
2022/07/17 07:39:10;;;;;;;8.45;1.98;;;;;;;15.03;58.83;102090.31;7398465;19;20116;-65
2022/07/17 07:41:38;;;;;;;7.20;1.63;;;;;;;15.10;58.53;102098.97;7395943;19;20018;-65
2022/07/17 07:44:07;;;;;;;8.68;1.38;;;;;;;15.22;58.24;102100.53;7398140;19;20018;-65
2022/07/17 07:46:36;;;;;;;8.25;1.90;;;;;;;15.34;58.10;102096.78;7398058;19;20081;-65
2022/07/17 07:49:05;;;;;;;6.88;1.23;;;;;;;15.42;57.20;102098.34;7396352;19;20014;-65
2022/07/17 07:51:33;;;;;;;6.82;2.05;;;;;;;15.47;56.52;102112.34;7395243;19;20011;-65
2022/07/17 07:54:04;;;;;;;3.78;1.45;;;;;;;15.50;56.00;102105.28;7396318;19;20019;-66
2022/07/17 07:56:33;;;;;;;6.53;1.27;;;;;;;15.52;55.35;102121.97;7398805;19;20410;-65
2022/07/17 07:59:01;;;;;;;9.48;1.35;;;;;;;15.47;55.81;102120.28;7395901;19;20015;-65
2022/07/17 08:01:30;;;;;;;5.28;1.45;;;;;;;15.49;55.52;102114.97;7395674;19;20462;-65
2022/07/17 08:03:58;;;;;;;8.10;1.83;;;;;;;15.52;55.64;102106.97;7397536;19;20014;-65
2022/07/17 08:06:27;;;;;;;10.05;1.90;;;;;;;15.55;55.35;102101.63;7395620;19;20099;-65
2022/07/17 08:08:55;;;;;;;8.10;1.27;;;;;;;15.58;54.22;102105.97;7395402;19;20018;-65
2022/07/17 08:11:27;;;;;;;4.43;1.25;;;;;;;15.63;54.01;102101.44;7397755;19;20038;-65
2022/07/17 08:13:55;;;;;;;10.30;1.50;;;;;;;15.74;54.27;102104.72;7397000;19;20077;-65
2022/07/17 08:16:24;;;;;;;7.72;1.40;;;;;;;15.88;53.94;102098.31;7395710;19;20015;-65
2022/07/17 08:18:52;;;;;;;8.93;1.52;;;;;;;15.94;53.59;102091.09;7394218;19;20031;-65
2022/07/17 08:21:22;;;;;;;5.00;1.70;;;;;;;15.99;53.41;102101.59;7394863;19;20071;-65
2022/07/17 08:23:51;;;;;;;5.88;1.30;;;;;;;16.03;53.14;102097.09;7396940;19;20426;-65
2022/07/17 08:26:19;;;;;;;5.00;1.52;;;;;;;16.08;52.45;102100.50;7394644;19;20485;-65
2022/07/17 08:28:50;;;;;;;7.25;1.17;;;;;;;16.06;51.62;102099.66;7394716;19;20498;-65
2022/07/17 08:31:19;;;;;;;7.15;1.30;;;;;;;16.09;52.88;102103.13;7395418;19;20018;-65
2022/07/17 08:33:47;;;;;;;4.72;1.10;;;;;;;16.11;52.42;102109.25;7395605;19;20430;-66
2022/07/17 08:36:16;;;;;;;5.00;1.10;;;;;;;16.17;52.48;102112.66;7396053;19;20082;-65
2022/07/17 08:38:45;;;;;;;4.53;0.93;;;;;;;16.21;52.55;102111.69;7394844;19;20026;-65
2022/07/17 08:41:17;;;;;;;4.38;1.42;;;;;;;16.24;52.23;102111.63;7394484;19;20095;-65
2022/07/17 08:43:48;;;;;;;6.25;1.45;;;;;;;16.27;51.99;102116.81;7394210;19;20069;-65
2022/07/17 08:46:19;;;;;;;4.35;1.33;;;;;;;16.31;51.85;102126.44;7397012;19;20034;-65
2022/07/17 08:48:49;;;;;;;6.05;1.20;;;;;;;16.33;52.09;102121.09;7394571;19;20027;-65
2022/07/17 08:51:19;;;;;;;6.20;1.20;;;;;;;16.30;51.93;102122.03;7396392;19;20085;-66
2022/07/17 08:53:48;;;;;;;5.63;0.95;;;;;;;16.32;52.04;102120.22;7395064;19;20021;-65
2022/07/17 08:56:16;;;;;;;7.07;1.48;;;;;;;16.34;52.20;102118.44;7396263;19;20014;-65
2022/07/17 08:58:45;;;;;;;4.28;0.93;;;;;;;16.36;52.00;102111.31;7394171;19;20064;-64
2022/07/17 09:01:14;;;;;;;4.53;1.08;;;;;;;16.36;51.69;102111.31;7394047;19;20018;-65
2022/07/17 09:03:56;;;;;;;5.35;1.20;;;;;;;16.36;51.24;102121.91;7395308;19;20027;-65
2022/07/17 09:06:24;;;;;;;6.68;1.42;;;;;;;16.35;51.88;102120.19;7396517;19;20018;-65
2022/07/17 09:09:03;;;;;;;5.68;1.45;;;;;;;16.39;51.90;102111.25;7394194;19;20074;-65
2022/07/17 09:11:32;;;;;;;4.80;1.30;;;;;;;16.50;51.79;102104.81;7394271;19;20073;-65
2022/07/17 09:14:00;;;;;;;3.63;1.05;;;;;;;16.60;51.79;102109.84;7395534;19;20021;-64
2022/07/17 09:16:35;;;;;;;9.35;1.33;;;;;;;16.71;51.33;102106.06;7392971;19;20023;-64
2022/07/17 09:19:06;;;;;;;6.07;1.27;;;;;;;16.80;50.63;102103.16;7393256;19;20031;-64
2022/07/17 09:21:36;;;;;;;7.22;1.80;;;;;;;16.87;50.79;102107.38;7395132;19;20557;-67
2022/07/17 09:24:06;;;;;;;8.43;1.63;;;;;;;16.86;50.00;102110.09;7395344;19;20018;-66
2022/07/17 09:26:37;;;;;;;11.02;1.30;;;;;;;16.85;49.77;102101.25;7394488;19;20007;-65
2022/07/17 09:29:07;;;;;;;5.90;1.10;;;;;;;16.89;49.97;102104.69;7393049;19;20031;-65
2022/07/17 09:31:36;;;;;;;4.82;1.00;;;;;;;16.92;49.63;102088.72;7393370;19;20037;-65
2022/07/17 09:34:07;;;;;;;5.25;1.10;;;;;;;17.00;49.45;102101.78;7393675;19;20015;-66
2022/07/17 09:36:36;;;;;;;4.88;1.38;;;;;;;17.12;49.78;102097.94;7394665;19;20473;-65
2022/07/17 09:39:05;;;;;;;8.05;1.00;;;;;;;17.24;49.55;102105.53;7392780;19;20023;-66
2022/07/17 09:41:33;;;;;;;7.18;1.10;;;;;;;17.34;48.77;102101.72;7393596;19;20019;-66
2022/07/17 09:44:02;;;;;;;3.35;1.27;;;;;;;17.45;48.36;102108.50;7394471;19;20062;-65
2022/07/17 09:46:33;;;;;;;7.07;1.52;;;;;;;17.52;48.63;102102.09;7393219;19;20019;-66
2022/07/17 09:49:04;;;;;;;6.85;1.55;;;;;;;17.58;48.31;102104.56;7392404;19;20481;-65
2022/07/17 09:51:37;;;;;;;5.43;1.45;;;;;;;17.63;48.28;102102.66;7393086;19;20019;-66
2022/07/17 09:54:07;;;;;;;;;;;;;;;17.66;46.74;102097.25;7394659;19;20017;-66
2022/07/17 09:56:37;;;;;;;4.82;1.20;;;;;;;17.71;47.90;102097.97;7394592;19;19924;-66
2022/07/17 09:59:07;;;;;;;2.25;0.85;;;;;;;17.75;47.65;102110.25;7391471;19;20392;-65
2022/07/17 10:01:37;;;;;;;3.78;0.93;;;;;;;17.79;47.06;102103.03;7392800;19;20095;-66
2022/07/17 10:04:06;;;;;;;5.00;0.75;;;;;;;17.79;45.69;102111.00;7392159;19;20031;-66
2022/07/17 10:06:37;;;;;;;7.85;1.58;;;;;;;17.77;46.68;102090.72;7394405;19;20022;-66
2022/07/17 10:09:06;;;;;;;6.97;1.98;;;;;;;17.89;46.80;102093.91;7392360;19;20360;-65
2022/07/17 10:11:37;;;;;;;7.78;1.25;;;;;;;17.99;46.46;102101.59;7393854;19;20505;-65
2022/07/17 10:14:08;;;;;;;5.65;1.42;;;;;;;18.03;46.47;102096.16;7394065;19;20055;-65
2022/07/17 10:16:45;;;;;;;3.70;1.23;;;;;;;18.06;45.06;102101.34;7391079;19;20497;-66
2022/07/17 10:19:22;;;;;;;5.40;1.58;;;;;;;18.05;44.86;102110.25;7393944;19;20334;-66
2022/07/17 10:22:01;;;;;;;6.53;1.13;;;;;;;18.01;44.87;102123.69;7391970;19;20018;-65
2022/07/17 10:24:31;;;;;;;5.35;1.02;;;;;;;18.04;45.96;102097.88;7393738;19;20018;-63
2022/07/17 10:27:01;;;;;;;4.38;1.15;;;;;;;18.14;46.10;102092.28;7391822;19;20030;-65
2022/07/17 10:29:35;;;;;;;3.38;1.00;;;;;;;18.26;45.76;102097.22;7390710;19;20477;-65
2022/07/17 10:32:06;;;;;;;4.75;1.55;;;;;;;18.38;45.58;102094.13;7393307;19;20022;-66
2022/07/17 10:34:43;;;;;;;5.05;1.25;;;;;;;18.53;45.03;102102.53;7390774;19;20043;-66
2022/07/17 10:37:25;;;;;;;5.38;1.30;;;;;;;18.69;44.48;102100.19;7392388;19;20035;-66
2022/07/17 10:40:13;;;;;;;7.22;1.50;;;;;;;18.85;44.47;102089.91;7392645;19;20490;-66
2022/07/17 10:42:48;;;;;;;6.72;1.25;;;;;;;18.94;44.30;102086.94;7399382;19;20026;-65
2022/07/17 10:45:18;;;;;;;3.42;1.50;;;;;;;19.01;43.95;102084.94;7400349;19;20010;-66
2022/07/17 10:47:52;;;;;;;5.82;1.38;;;;;;;19.08;44.15;102081.13;7399028;19;20367;-65
2022/07/17 10:50:22;;;;;;;4.95;1.20;;;;;;;19.19;44.04;102078.94;7397776;19;20023;-65
2022/07/17 10:53:11;;;;;;;7.18;1.10;;;;;;;19.27;43.24;102075.13;7400242;19;20506;-66
2022/07/17 10:55:43;;;;;;;7.05;1.13;;;;;;;19.24;42.52;102078.78;7398732;19;20019;-66
2022/07/17 10:58:26;;;;;;;5.68;1.35;;;;;;;19.12;43.06;102066.81;7397338;19;20498;-66
2022/07/17 11:01:06;;;;;;;6.10;1.38;;;;;;;19.03;43.17;102062.69;7399786;19;20548;-66
2022/07/17 11:03:39;;;;;;;4.28;1.73;;;;;;;19.03;43.04;102061.81;7397317;19;20474;-66
2022/07/17 11:06:26;;;;;;;5.72;1.15;;;;;;;19.04;43.40;102055.56;7399991;19;20022;-66
2022/07/17 11:08:59;;;;;;;2.60;1.30;;;;;;;19.11;43.16;102050.88;7397093;19;20014;-65
2022/07/17 11:11:39;;;;;;;3.47;1.35;;;;;;;19.18;43.29;102047.09;7397687;19;20019;-66
2022/07/17 11:14:13;;;;;;;6.18;1.27;;;;;;;19.25;43.21;102043.28;7399425;19;20083;-66
2022/07/17 11:16:48;;;;;;;4.97;1.42;;;;;;;19.31;43.60;102045.72;7396618;19;20006;-65
2022/07/17 11:19:23;;;;;;;4.53;1.13;;;;;;;19.42;42.98;102047.09;7400186;19;20022;-66
2022/07/17 11:21:53;;;;;;;4.15;1.20;;;;;;;19.51;43.41;102046.72;7399530;19;20070;-66
2022/07/17 11:24:26;;;;;;;6.05;1.35;;;;;;;19.59;43.12;102046.41;7396832;19;20028;-64
2022/07/17 11:26:55;;;;;;;4.85;1.30;;;;;;;19.63;41.72;102046.25;7397088;19;20070;-66
2022/07/17 11:29:23;;;;;;;5.20;1.10;;;;;;;19.68;41.85;102049.59;7398391;19;20014;-66
2022/07/17 11:31:57;;;;;;;4.45;1.02;;;;;;;19.67;41.73;102041.69;7398615;19;20015;-66
2022/07/17 11:34:28;;;;;;;2.92;1.00;;;;;;;19.67;41.37;102045.19;7397559;19;20014;-66
2022/07/17 11:37:02;;;;;;;4.32;0.88;;;;;;;19.72;41.44;102036.19;7398190;19;20035;-67
2022/07/17 11:39:40;;;;;;;4.85;1.02;;;;;;;19.79;40.59;102040.31;7398761;19;20023;-67